sensor_id;sensor_type;location;lat;lon;timestamp;P1;durP1;ratioP1;P2;durP2;ratioP2
45684;SDS011;46836;48.388;16.210;2023-05-01T00:02:12;7.72;;;6.32;;
45684;SDS011;46836;48.388;16.210;2023-05-01T00:04:39;8.05;;;6.35;;
45684;SDS011;46836;48.388;16.210;2023-05-01T00:07:06;6.88;;;6.05;;
45684;SDS011;46836;48.388;16.210;2023-05-01T00:09:33;7.03;;;4.85;;
45684;SDS011;46836;48.388;16.210;2023-05-01T00:12:00;6.57;;;5.60;;
45684;SDS011;46836;48.388;16.210;2023-05-01T00:14:29;6.18;;;4.97;;
45684;SDS011;46836;48.388;16.210;2023-05-01T00:16:56;10.13;;;4.47;;
45684;SDS011;46836;48.388;16.210;2023-05-01T00:19:23;4.97;;;4.53;;
45684;SDS011;46836;48.388;16.210;2023-05-01T00:21:50;5.20;;;4.55;;
45684;SDS011;46836;48.388;16.210;2023-05-01T00:24:18;5.70;;;4.90;;
45684;SDS011;46836;48.388;16.210;2023-05-01T00:26:45;8.35;;;4.88;;
45684;SDS011;46836;48.388;16.210;2023-05-01T00:29:12;9.32;;;4.68;;
45684;SDS011;46836;48.388;16.210;2023-05-01T00:31:39;4.38;;;3.95;;
45684;SDS011;46836;48.388;16.210;2023-05-01T00:34:08;4.75;;;3.83;;
45684;SDS011;46836;48.388;16.210;2023-05-01T00:36:36;8.45;;;4.45;;
45684;SDS011;46836;48.388;16.210;2023-05-01T00:39:03;4.97;;;3.97;;
45684;SDS011;46836;48.388;16.210;2023-05-01T00:41:36;8.65;;;4.82;;
45684;SDS011;46836;48.388;16.210;2023-05-01T00:44:03;7.45;;;5.55;;
45684;SDS011;46836;48.388;16.210;2023-05-01T00:46:30;8.60;;;5.70;;
45684;SDS011;46836;48.388;16.210;2023-05-01T00:48:59;4.60;;;4.20;;
45684;SDS011;46836;48.388;16.210;2023-05-01T00:51:27;8.25;;;4.53;;
45684;SDS011;46836;48.388;16.210;2023-05-01T00:53:54;6.13;;;4.90;;
45684;SDS011;46836;48.388;16.210;2023-05-01T00:56:24;7.38;;;4.20;;
45684;SDS011;46836;48.388;16.210;2023-05-01T00:58:51;6.70;;;4.63;;
45684;SDS011;46836;48.388;16.210;2023-05-01T01:01:19;7.47;;;3.97;;
45684;SDS011;46836;48.388;16.210;2023-05-01T01:03:47;4.90;;;4.10;;
45684;SDS011;46836;48.388;16.210;2023-05-01T01:06:32;5.55;;;4.25;;
45684;SDS011;46836;48.388;16.210;2023-05-01T01:11:52;4.22;;;3.83;;
45684;SDS011;46836;48.388;16.210;2023-05-01T01:14:25;4.80;;;3.55;;
45684;SDS011;46836;48.388;16.210;2023-05-01T01:23:15;5.35;;;4.43;;
45684;SDS011;46836;48.388;16.210;2023-05-01T01:29:02;6.55;;;4.50;;
45684;SDS011;46836;48.388;16.210;2023-05-01T01:34:47;6.18;;;4.63;;
45684;SDS011;46836;48.388;16.210;2023-05-01T01:37:24;6.93;;;5.53;;
45684;SDS011;46836;48.388;16.210;2023-05-01T01:40:04;11.73;;;5.22;;
45684;SDS011;46836;48.388;16.210;2023-05-01T01:42:57;7.50;;;5.10;;
45684;SDS011;46836;48.388;16.210;2023-05-01T01:45:33;6.03;;;4.75;;
45684;SDS011;46836;48.388;16.210;2023-05-01T01:48:05;8.43;;;5.63;;
45684;SDS011;46836;48.388;16.210;2023-05-01T01:50:37;8.02;;;5.85;;
45684;SDS011;46836;48.388;16.210;2023-05-01T01:53:05;11.98;;;6.45;;
45684;SDS011;46836;48.388;16.210;2023-05-01T01:55:35;11.93;;;6.38;;
45684;SDS011;46836;48.388;16.210;2023-05-01T01:58:05;6.47;;;5.22;;
45684;SDS011;46836;48.388;16.210;2023-05-01T02:00:34;6.47;;;5.63;;
45684;SDS011;46836;48.388;16.210;2023-05-01T02:03:02;7.57;;;5.80;;
45684;SDS011;46836;48.388;16.210;2023-05-01T02:05:29;8.63;;;6.03;;
45684;SDS011;46836;48.388;16.210;2023-05-01T02:07:58;8.48;;;6.32;;
45684;SDS011;46836;48.388;16.210;2023-05-01T02:10:27;7.35;;;6.60;;
45684;SDS011;46836;48.388;16.210;2023-05-01T02:12:55;6.63;;;5.93;;
45684;SDS011;46836;48.388;16.210;2023-05-01T02:15:24;7.47;;;6.40;;
45684;SDS011;46836;48.388;16.210;2023-05-01T02:17:53;8.05;;;5.95;;
45684;SDS011;46836;48.388;16.210;2023-05-01T02:20:20;9.25;;;5.88;;
45684;SDS011;46836;48.388;16.210;2023-05-01T02:22:48;7.65;;;5.75;;
45684;SDS011;46836;48.388;16.210;2023-05-01T02:25:18;10.80;;;6.35;;
45684;SDS011;46836;48.388;16.210;2023-05-01T02:27:46;8.45;;;5.70;;
45684;SDS011;46836;48.388;16.210;2023-05-01T02:30:18;6.75;;;6.05;;
45684;SDS011;46836;48.388;16.210;2023-05-01T02:32:45;8.27;;;6.63;;
45684;SDS011;46836;48.388;16.210;2023-05-01T02:35:12;7.40;;;5.80;;
45684;SDS011;46836;48.388;16.210;2023-05-01T02:37:39;8.75;;;6.68;;
45684;SDS011;46836;48.388;16.210;2023-05-01T02:40:06;11.07;;;6.25;;
45684;SDS011;46836;48.388;16.210;2023-05-01T02:42:34;6.72;;;5.85;;
45684;SDS011;46836;48.388;16.210;2023-05-01T02:45:04;7.55;;;6.30;;
45684;SDS011;46836;48.388;16.210;2023-05-01T02:47:36;10.20;;;6.05;;
45684;SDS011;46836;48.388;16.210;2023-05-01T02:50:05;8.55;;;6.10;;
45684;SDS011;46836;48.388;16.210;2023-05-01T02:52:33;7.63;;;5.97;;
45684;SDS011;46836;48.388;16.210;2023-05-01T02:55:02;8.70;;;5.88;;
45684;SDS011;46836;48.388;16.210;2023-05-01T02:57:33;8.60;;;6.05;;
45684;SDS011;46836;48.388;16.210;2023-05-01T03:00:00;7.85;;;5.40;;
45684;SDS011;46836;48.388;16.210;2023-05-01T03:02:27;17.88;;;6.10;;
45684;SDS011;46836;48.388;16.210;2023-05-01T03:04:54;11.27;;;6.65;;
45684;SDS011;46836;48.388;16.210;2023-05-01T03:07:21;9.50;;;6.75;;
45684;SDS011;46836;48.388;16.210;2023-05-01T03:09:48;8.55;;;6.43;;
45684;SDS011;46836;48.388;16.210;2023-05-01T03:12:15;15.15;;;6.70;;
45684;SDS011;46836;48.388;16.210;2023-05-01T03:14:42;10.30;;;6.40;;
45684;SDS011;46836;48.388;16.210;2023-05-01T03:17:09;9.23;;;6.65;;
45684;SDS011;46836;48.388;16.210;2023-05-01T03:19:36;8.63;;;6.15;;
45684;SDS011;46836;48.388;16.210;2023-05-01T03:22:03;7.72;;;6.10;;
45684;SDS011;46836;48.388;16.210;2023-05-01T03:24:31;7.57;;;6.47;;
45684;SDS011;46836;48.388;16.210;2023-05-01T03:26:58;7.10;;;6.40;;
45684;SDS011;46836;48.388;16.210;2023-05-01T03:29:25;7.90;;;6.50;;
45684;SDS011;46836;48.388;16.210;2023-05-01T03:31:52;12.30;;;6.40;;
45684;SDS011;46836;48.388;16.210;2023-05-01T03:34:19;7.05;;;5.70;;
45684;SDS011;46836;48.388;16.210;2023-05-01T03:36:46;11.27;;;6.78;;
45684;SDS011;46836;48.388;16.210;2023-05-01T03:39:13;10.27;;;5.90;;
45684;SDS011;46836;48.388;16.210;2023-05-01T03:41:40;10.55;;;6.20;;
45684;SDS011;46836;48.388;16.210;2023-05-01T03:44:07;7.88;;;5.85;;
45684;SDS011;46836;48.388;16.210;2023-05-01T03:46:34;10.18;;;6.57;;
45684;SDS011;46836;48.388;16.210;2023-05-01T03:49:01;9.68;;;6.55;;
45684;SDS011;46836;48.388;16.210;2023-05-01T03:51:28;8.05;;;5.72;;
45684;SDS011;46836;48.388;16.210;2023-05-01T03:53:55;7.20;;;5.00;;
45684;SDS011;46836;48.388;16.210;2023-05-01T03:56:24;7.28;;;5.85;;
45684;SDS011;46836;48.388;16.210;2023-05-01T03:58:51;9.98;;;5.90;;
45684;SDS011;46836;48.388;16.210;2023-05-01T04:01:18;7.10;;;5.90;;
45684;SDS011;46836;48.388;16.210;2023-05-01T04:03:45;7.10;;;5.80;;
45684;SDS011;46836;48.388;16.210;2023-05-01T04:06:13;6.57;;;5.43;;
45684;SDS011;46836;48.388;16.210;2023-05-01T04:08:42;9.73;;;6.70;;
45684;SDS011;46836;48.388;16.210;2023-05-01T04:11:09;7.32;;;6.22;;
45684;SDS011;46836;48.388;16.210;2023-05-01T04:13:36;6.90;;;5.68;;
45684;SDS011;46836;48.388;16.210;2023-05-01T04:16:03;6.60;;;5.97;;
45684;SDS011;46836;48.388;16.210;2023-05-01T04:18:31;6.55;;;5.10;;
45684;SDS011;46836;48.388;16.210;2023-05-01T04:20:58;5.72;;;5.13;;
45684;SDS011;46836;48.388;16.210;2023-05-01T04:23:25;6.47;;;5.78;;
45684;SDS011;46836;48.388;16.210;2023-05-01T04:25:52;7.60;;;5.60;;
45684;SDS011;46836;48.388;16.210;2023-05-01T04:28:19;8.95;;;5.72;;
45684;SDS011;46836;48.388;16.210;2023-05-01T04:30:46;11.05;;;6.57;;
45684;SDS011;46836;48.388;16.210;2023-05-01T04:33:13;5.30;;;4.80;;
45684;SDS011;46836;48.388;16.210;2023-05-01T04:35:41;8.15;;;6.03;;
45684;SDS011;46836;48.388;16.210;2023-05-01T04:38:08;7.00;;;6.05;;
45684;SDS011;46836;48.388;16.210;2023-05-01T04:40:36;6.40;;;5.80;;
45684;SDS011;46836;48.388;16.210;2023-05-01T04:43:03;6.90;;;6.03;;
45684;SDS011;46836;48.388;16.210;2023-05-01T04:45:30;7.10;;;6.20;;
45684;SDS011;46836;48.388;16.210;2023-05-01T04:47:57;7.57;;;6.10;;
45684;SDS011;46836;48.388;16.210;2023-05-01T04:50:24;7.47;;;5.95;;
45684;SDS011;46836;48.388;16.210;2023-05-01T04:52:52;7.05;;;6.07;;
45684;SDS011;46836;48.388;16.210;2023-05-01T04:55:19;6.72;;;6.13;;
45684;SDS011;46836;48.388;16.210;2023-05-01T04:57:46;6.85;;;6.05;;
45684;SDS011;46836;48.388;16.210;2023-05-01T05:00:13;9.10;;;6.20;;
45684;SDS011;46836;48.388;16.210;2023-05-01T05:02:41;6.38;;;5.72;;
45684;SDS011;46836;48.388;16.210;2023-05-01T05:05:08;7.80;;;6.18;;
45684;SDS011;46836;48.388;16.210;2023-05-01T05:07:35;6.43;;;5.82;;
45684;SDS011;46836;48.388;16.210;2023-05-01T05:10:02;8.13;;;5.88;;
45684;SDS011;46836;48.388;16.210;2023-05-01T05:12:29;7.97;;;6.22;;
45684;SDS011;46836;48.388;16.210;2023-05-01T05:14:56;10.85;;;6.35;;
45684;SDS011;46836;48.388;16.210;2023-05-01T05:17:23;10.95;;;6.95;;
45684;SDS011;46836;48.388;16.210;2023-05-01T05:19:50;9.55;;;6.85;;
45684;SDS011;46836;48.388;16.210;2023-05-01T05:22:17;7.55;;;6.32;;
45684;SDS011;46836;48.388;16.210;2023-05-01T05:24:44;7.38;;;6.05;;
45684;SDS011;46836;48.388;16.210;2023-05-01T05:27:12;9.88;;;6.72;;
45684;SDS011;46836;48.388;16.210;2023-05-01T05:29:39;8.57;;;6.55;;
45684;SDS011;46836;48.388;16.210;2023-05-01T05:32:06;7.75;;;6.70;;
45684;SDS011;46836;48.388;16.210;2023-05-01T05:34:33;7.78;;;6.53;;
45684;SDS011;46836;48.388;16.210;2023-05-01T05:37:00;11.30;;;6.82;;
45684;SDS011;46836;48.388;16.210;2023-05-01T05:39:27;9.23;;;7.00;;
45684;SDS011;46836;48.388;16.210;2023-05-01T05:41:55;7.53;;;6.20;;
45684;SDS011;46836;48.388;16.210;2023-05-01T05:44:24;9.75;;;6.78;;
45684;SDS011;46836;48.388;16.210;2023-05-01T05:46:51;18.58;;;7.65;;
45684;SDS011;46836;48.388;16.210;2023-05-01T05:49:18;8.02;;;6.55;;
45684;SDS011;46836;48.388;16.210;2023-05-01T05:51:45;9.82;;;6.90;;
45684;SDS011;46836;48.388;16.210;2023-05-01T05:54:12;12.90;;;7.03;;
45684;SDS011;46836;48.388;16.210;2023-05-01T05:56:40;8.40;;;6.32;;
45684;SDS011;46836;48.388;16.210;2023-05-01T05:59:07;9.25;;;5.97;;
45684;SDS011;46836;48.388;16.210;2023-05-01T06:01:34;13.50;;;6.38;;
45684;SDS011;46836;48.388;16.210;2023-05-01T06:04:03;8.57;;;6.18;;
45684;SDS011;46836;48.388;16.210;2023-05-01T06:06:30;8.05;;;5.95;;
45684;SDS011;46836;48.388;16.210;2023-05-01T06:08:57;8.95;;;6.07;;
45684;SDS011;46836;48.388;16.210;2023-05-01T06:11:24;6.53;;;5.65;;
45684;SDS011;46836;48.388;16.210;2023-05-01T06:13:52;6.57;;;5.82;;
45684;SDS011;46836;48.388;16.210;2023-05-01T06:16:20;6.55;;;5.53;;
45684;SDS011;46836;48.388;16.210;2023-05-01T06:18:47;6.00;;;5.22;;
45684;SDS011;46836;48.388;16.210;2023-05-01T06:21:14;6.20;;;5.30;;
45684;SDS011;46836;48.388;16.210;2023-05-01T06:23:41;9.50;;;5.78;;
45684;SDS011;46836;48.388;16.210;2023-05-01T06:26:08;5.53;;;5.00;;
45684;SDS011;46836;48.388;16.210;2023-05-01T06:28:35;7.88;;;5.30;;
45684;SDS011;46836;48.388;16.210;2023-05-01T06:31:02;7.40;;;4.85;;
45684;SDS011;46836;48.388;16.210;2023-05-01T06:33:30;6.30;;;5.00;;
45684;SDS011;46836;48.388;16.210;2023-05-01T06:35:57;5.50;;;4.90;;
45684;SDS011;46836;48.388;16.210;2023-05-01T06:38:25;5.18;;;4.68;;
45684;SDS011;46836;48.388;16.210;2023-05-01T06:40:52;5.30;;;4.80;;
45684;SDS011;46836;48.388;16.210;2023-05-01T06:43:19;6.55;;;4.82;;
45684;SDS011;46836;48.388;16.210;2023-05-01T06:45:46;7.10;;;5.40;;
45684;SDS011;46836;48.388;16.210;2023-05-01T06:48:13;9.23;;;5.45;;
45684;SDS011;46836;48.388;16.210;2023-05-01T06:50:40;5.20;;;4.40;;
45684;SDS011;46836;48.388;16.210;2023-05-01T06:53:07;6.00;;;4.57;;
45684;SDS011;46836;48.388;16.210;2023-05-01T06:55:34;5.90;;;4.75;;
45684;SDS011;46836;48.388;16.210;2023-05-01T06:58:01;7.55;;;5.10;;
45684;SDS011;46836;48.388;16.210;2023-05-01T07:00:47;8.02;;;4.95;;
45684;SDS011;46836;48.388;16.210;2023-05-01T07:03:14;7.57;;;4.68;;
45684;SDS011;46836;48.388;16.210;2023-05-01T07:05:41;11.07;;;5.40;;
45684;SDS011;46836;48.388;16.210;2023-05-01T07:08:08;9.25;;;4.90;;
45684;SDS011;46836;48.388;16.210;2023-05-01T07:10:35;5.15;;;4.65;;
45684;SDS011;46836;48.388;16.210;2023-05-01T07:13:05;7.15;;;5.20;;
45684;SDS011;46836;48.388;16.210;2023-05-01T07:15:32;7.28;;;4.80;;
45684;SDS011;46836;48.388;16.210;2023-05-01T07:18:00;5.97;;;5.00;;
45684;SDS011;46836;48.388;16.210;2023-05-01T07:20:28;6.90;;;4.82;;
45684;SDS011;46836;48.388;16.210;2023-05-01T07:22:55;8.52;;;5.03;;
45684;SDS011;46836;48.388;16.210;2023-05-01T07:25:23;6.97;;;5.25;;
45684;SDS011;46836;48.388;16.210;2023-05-01T07:27:50;6.93;;;5.45;;
45684;SDS011;46836;48.388;16.210;2023-05-01T07:30:18;10.75;;;5.43;;
45684;SDS011;46836;48.388;16.210;2023-05-01T07:32:45;7.28;;;5.07;;
45684;SDS011;46836;48.388;16.210;2023-05-01T07:35:13;6.63;;;4.70;;
45684;SDS011;46836;48.388;16.210;2023-05-01T07:37:40;7.38;;;5.15;;
45684;SDS011;46836;48.388;16.210;2023-05-01T07:40:07;7.13;;;4.82;;
45684;SDS011;46836;48.388;16.210;2023-05-01T07:42:34;5.15;;;4.65;;
45684;SDS011;46836;48.388;16.210;2023-05-01T07:45:01;5.38;;;4.85;;
45684;SDS011;46836;48.388;16.210;2023-05-01T07:47:29;6.65;;;5.38;;
45684;SDS011;46836;48.388;16.210;2023-05-01T07:49:56;7.97;;;5.50;;
45684;SDS011;46836;48.388;16.210;2023-05-01T07:52:23;8.38;;;5.72;;
45684;SDS011;46836;48.388;16.210;2023-05-01T07:54:50;6.35;;;5.40;;
45684;SDS011;46836;48.388;16.210;2023-05-01T07:57:17;9.57;;;5.65;;
45684;SDS011;46836;48.388;16.210;2023-05-01T07:59:45;8.10;;;5.20;;
45684;SDS011;46836;48.388;16.210;2023-05-01T08:02:12;9.88;;;5.93;;
45684;SDS011;46836;48.388;16.210;2023-05-01T08:04:39;6.05;;;5.15;;
45684;SDS011;46836;48.388;16.210;2023-05-01T08:07:07;6.55;;;5.03;;
45684;SDS011;46836;48.388;16.210;2023-05-01T08:09:34;8.82;;;5.70;;
45684;SDS011;46836;48.388;16.210;2023-05-01T08:12:01;7.05;;;5.72;;
45684;SDS011;46836;48.388;16.210;2023-05-01T08:14:29;9.82;;;5.45;;
45684;SDS011;46836;48.388;16.210;2023-05-01T08:16:56;8.20;;;5.85;;
45684;SDS011;46836;48.388;16.210;2023-05-01T08:19:23;12.02;;;5.43;;
45684;SDS011;46836;48.388;16.210;2023-05-01T08:21:51;8.13;;;5.60;;
45684;SDS011;46836;48.388;16.210;2023-05-01T08:24:18;9.65;;;5.70;;
45684;SDS011;46836;48.388;16.210;2023-05-01T08:26:45;12.95;;;6.70;;
45684;SDS011;46836;48.388;16.210;2023-05-01T08:29:14;6.55;;;5.82;;
45684;SDS011;46836;48.388;16.210;2023-05-01T08:31:41;7.82;;;5.57;;
45684;SDS011;46836;48.388;16.210;2023-05-01T08:34:09;9.18;;;5.85;;
45684;SDS011;46836;48.388;16.210;2023-05-01T08:36:36;6.22;;;5.50;;
45684;SDS011;46836;48.388;16.210;2023-05-01T08:39:03;7.45;;;5.60;;
45684;SDS011;46836;48.388;16.210;2023-05-01T08:41:30;9.80;;;6.53;;
45684;SDS011;46836;48.388;16.210;2023-05-01T08:43:59;7.15;;;5.50;;
45684;SDS011;46836;48.388;16.210;2023-05-01T08:46:37;7.00;;;5.70;;
45684;SDS011;46836;48.388;16.210;2023-05-01T08:49:14;13.95;;;5.90;;
45684;SDS011;46836;48.388;16.210;2023-05-01T08:51:46;8.83;;;5.40;;
45684;SDS011;46836;48.388;16.210;2023-05-01T08:54:15;7.45;;;5.90;;
45684;SDS011;46836;48.388;16.210;2023-05-01T08:56:46;7.00;;;5.87;;
45684;SDS011;46836;48.388;16.210;2023-05-01T08:59:13;7.80;;;6.17;;
45684;SDS011;46836;48.388;16.210;2023-05-01T09:01:41;6.40;;;5.63;;
45684;SDS011;46836;48.388;16.210;2023-05-01T09:04:09;6.80;;;5.63;;
45684;SDS011;46836;48.388;16.210;2023-05-01T09:06:37;7.80;;;5.27;;
45684;SDS011;46836;48.388;16.210;2023-05-01T09:09:04;8.53;;;5.93;;
45684;SDS011;46836;48.388;16.210;2023-05-01T09:11:32;8.80;;;6.90;;
45684;SDS011;46836;48.388;16.210;2023-05-01T09:13:59;8.33;;;6.30;;
45684;SDS011;46836;48.388;16.210;2023-05-01T09:16:31;8.83;;;6.50;;
45684;SDS011;46836;48.388;16.210;2023-05-01T09:18:58;8.10;;;6.63;;
45684;SDS011;46836;48.388;16.210;2023-05-01T09:21:26;8.10;;;6.73;;
45684;SDS011;46836;48.388;16.210;2023-05-01T09:23:56;7.27;;;6.37;;
45684;SDS011;46836;48.388;16.210;2023-05-01T09:26:23;10.60;;;6.53;;
45684;SDS011;46836;48.388;16.210;2023-05-01T09:28:52;10.63;;;7.23;;
45684;SDS011;46836;48.388;16.210;2023-05-01T09:31:24;8.87;;;6.80;;
45684;SDS011;46836;48.388;16.210;2023-05-01T09:34:00;8.70;;;5.87;;
45684;SDS011;46836;48.388;16.210;2023-05-01T09:36:33;7.13;;;5.80;;
45684;SDS011;46836;48.388;16.210;2023-05-01T09:39:02;7.07;;;5.43;;
45684;SDS011;46836;48.388;16.210;2023-05-01T09:41:30;8.63;;;5.87;;
45684;SDS011;46836;48.388;16.210;2023-05-01T09:43:58;6.60;;;5.37;;
45684;SDS011;46836;48.388;16.210;2023-05-01T09:46:26;10.70;;;5.77;;
45684;SDS011;46836;48.388;16.210;2023-05-01T09:48:58;6.00;;;5.10;;
45684;SDS011;46836;48.388;16.210;2023-05-01T09:54:00;9.33;;;6.20;;
45684;SDS011;46836;48.388;16.210;2023-05-01T09:56:30;9.40;;;5.33;;
45684;SDS011;46836;48.388;16.210;2023-05-01T09:59:15;7.20;;;4.80;;
45684;SDS011;46836;48.388;16.210;2023-05-01T10:01:45;5.03;;;4.50;;
45684;SDS011;46836;48.388;16.210;2023-05-01T10:04:14;5.20;;;4.70;;
45684;SDS011;46836;48.388;16.210;2023-05-01T10:06:41;7.83;;;4.60;;
45684;SDS011;46836;48.388;16.210;2023-05-01T10:09:08;6.40;;;4.90;;
45684;SDS011;46836;48.388;16.210;2023-05-01T10:11:46;5.17;;;4.40;;
45684;SDS011;46836;48.388;16.210;2023-05-01T10:14:13;4.13;;;3.73;;
45684;SDS011;46836;48.388;16.210;2023-05-01T10:16:40;5.80;;;4.77;;
45684;SDS011;46836;48.388;16.210;2023-05-01T10:19:07;4.93;;;4.43;;
45684;SDS011;46836;48.388;16.210;2023-05-01T10:21:36;4.97;;;4.13;;
45684;SDS011;46836;48.388;16.210;2023-05-01T10:24:04;6.33;;;4.10;;
45684;SDS011;46836;48.388;16.210;2023-05-01T10:26:33;3.97;;;3.67;;
45684;SDS011;46836;48.388;16.210;2023-05-01T10:29:01;5.17;;;4.00;;
45684;SDS011;46836;48.388;16.210;2023-05-01T10:31:29;7.07;;;5.10;;
45684;SDS011;46836;48.388;16.210;2023-05-01T10:33:58;5.73;;;4.10;;
45684;SDS011;46836;48.388;16.210;2023-05-01T10:36:31;8.33;;;4.17;;
45684;SDS011;46836;48.388;16.210;2023-05-01T10:39:05;4.50;;;3.87;;
45684;SDS011;46836;48.388;16.210;2023-05-01T10:44:24;5.73;;;4.30;;
45684;SDS011;46836;48.388;16.210;2023-05-01T10:46:52;5.20;;;4.30;;
45684;SDS011;46836;48.388;16.210;2023-05-01T10:49:20;4.13;;;3.73;;
45684;SDS011;46836;48.388;16.210;2023-05-01T10:54:29;4.37;;;3.97;;
45684;SDS011;46836;48.388;16.210;2023-05-01T10:57:01;4.50;;;4.10;;
45684;SDS011;46836;48.388;16.210;2023-05-01T11:00:14;4.30;;;3.90;;
45684;SDS011;46836;48.388;16.210;2023-05-01T11:02:25;4.07;;;3.67;;
45684;SDS011;46836;48.388;16.210;2023-05-01T11:04:52;5.43;;;4.33;;
45684;SDS011;46836;48.388;16.210;2023-05-01T11:07:22;6.33;;;4.37;;
45684;SDS011;46836;48.388;16.210;2023-05-01T11:09:50;9.23;;;3.90;;
45684;SDS011;46836;48.388;16.210;2023-05-01T11:15:27;5.00;;;4.27;;
45684;SDS011;46836;48.388;16.210;2023-05-01T11:17:56;4.50;;;3.63;;
45684;SDS011;46836;48.388;16.210;2023-05-01T11:22:51;4.90;;;3.90;;
45684;SDS011;46836;48.388;16.210;2023-05-01T11:25:20;5.70;;;4.03;;
45684;SDS011;46836;48.388;16.210;2023-05-01T11:27:49;3.97;;;3.60;;
45684;SDS011;46836;48.388;16.210;2023-05-01T11:30:21;8.63;;;3.80;;
45684;SDS011;46836;48.388;16.210;2023-05-01T11:32:49;6.13;;;4.27;;
45684;SDS011;46836;48.388;16.210;2023-05-01T11:37:48;6.37;;;4.30;;
45684;SDS011;46836;48.388;16.210;2023-05-01T11:40:25;4.93;;;4.07;;
45684;SDS011;46836;48.388;16.210;2023-05-01T11:45:28;4.93;;;3.80;;
45684;SDS011;46836;48.388;16.210;2023-05-01T11:47:56;4.30;;;3.90;;
45684;SDS011;46836;48.388;16.210;2023-05-01T11:50:31;3.97;;;3.27;;
45684;SDS011;46836;48.388;16.210;2023-05-01T11:53:01;6.33;;;4.13;;
45684;SDS011;46836;48.388;16.210;2023-05-01T11:55:30;3.60;;;3.30;;
45684;SDS011;46836;48.388;16.210;2023-05-01T11:57:58;5.57;;;3.20;;
45684;SDS011;46836;48.388;16.210;2023-05-01T12:00:30;7.33;;;3.43;;
45684;SDS011;46836;48.388;16.210;2023-05-01T12:03:03;3.40;;;3.00;;
45684;SDS011;46836;48.388;16.210;2023-05-01T12:05:41;4.10;;;3.70;;
45684;SDS011;46836;48.388;16.210;2023-05-01T12:08:11;3.87;;;3.47;;
45684;SDS011;46836;48.388;16.210;2023-05-01T12:10:39;3.50;;;3.20;;
45684;SDS011;46836;48.388;16.210;2023-05-01T12:13:09;4.63;;;3.23;;
45684;SDS011;46836;48.388;16.210;2023-05-01T12:15:40;3.23;;;2.90;;
45684;SDS011;46836;48.388;16.210;2023-05-01T12:18:12;3.20;;;2.90;;
45684;SDS011;46836;48.388;16.210;2023-05-01T12:20:45;3.53;;;3.23;;
45684;SDS011;46836;48.388;16.210;2023-05-01T12:23:13;4.30;;;2.67;;
45684;SDS011;46836;48.388;16.210;2023-05-01T12:25:44;3.97;;;2.87;;
45684;SDS011;46836;48.388;16.210;2023-05-01T12:28:15;3.17;;;2.70;;
45684;SDS011;46836;48.388;16.210;2023-05-01T12:30:46;3.10;;;2.57;;
45684;SDS011;46836;48.388;16.210;2023-05-01T12:33:20;4.70;;;3.20;;
45684;SDS011;46836;48.388;16.210;2023-05-01T12:35:48;2.83;;;2.63;;
45684;SDS011;46836;48.388;16.210;2023-05-01T12:38:16;3.10;;;2.80;;
45684;SDS011;46836;48.388;16.210;2023-05-01T12:40:57;3.40;;;3.00;;
45684;SDS011;46836;48.388;16.210;2023-05-01T12:43:29;4.60;;;3.27;;
45684;SDS011;46836;48.388;16.210;2023-05-01T12:45:58;2.80;;;2.60;;
45684;SDS011;46836;48.388;16.210;2023-05-01T12:48:25;4.60;;;2.77;;
45684;SDS011;46836;48.388;16.210;2023-05-01T12:50:53;2.60;;;2.40;;
45684;SDS011;46836;48.388;16.210;2023-05-01T12:53:21;3.40;;;2.73;;
45684;SDS011;46836;48.388;16.210;2023-05-01T12:55:54;3.83;;;2.60;;
45684;SDS011;46836;48.388;16.210;2023-05-01T12:58:34;3.57;;;2.43;;
45684;SDS011;46836;48.388;16.210;2023-05-01T13:01:02;4.03;;;2.70;;
45684;SDS011;46836;48.388;16.210;2023-05-01T13:03:29;2.70;;;2.30;;
45684;SDS011;46836;48.388;16.210;2023-05-01T13:05:58;3.13;;;2.83;;
45684;SDS011;46836;48.388;16.210;2023-05-01T13:08:28;2.70;;;2.50;;
45684;SDS011;46836;48.388;16.210;2023-05-01T13:11:00;3.20;;;2.70;;
45684;SDS011;46836;48.388;16.210;2023-05-01T13:13:35;2.67;;;2.47;;
45684;SDS011;46836;48.388;16.210;2023-05-01T13:16:03;2.90;;;2.60;;
45684;SDS011;46836;48.388;16.210;2023-05-01T13:18:32;2.83;;;2.63;;
45684;SDS011;46836;48.388;16.210;2023-05-01T13:21:09;2.80;;;2.43;;
45684;SDS011;46836;48.388;16.210;2023-05-01T13:23:37;3.57;;;2.83;;
45684;SDS011;46836;48.388;16.210;2023-05-01T13:26:05;3.07;;;2.70;;
45684;SDS011;46836;48.388;16.210;2023-05-01T13:28:34;3.13;;;2.63;;
45684;SDS011;46836;48.388;16.210;2023-05-01T13:31:10;2.67;;;2.47;;
45684;SDS011;46836;48.388;16.210;2023-05-01T13:33:40;2.87;;;2.63;;
45684;SDS011;46836;48.388;16.210;2023-05-01T13:36:12;4.70;;;2.50;;
45684;SDS011;46836;48.388;16.210;2023-05-01T13:38:53;2.50;;;2.30;;
45684;SDS011;46836;48.388;16.210;2023-05-01T13:41:23;3.30;;;2.30;;
45684;SDS011;46836;48.388;16.210;2023-05-01T13:43:52;3.10;;;2.80;;
45684;SDS011;46836;48.388;16.210;2023-05-01T13:46:22;3.60;;;2.53;;
45684;SDS011;46836;48.388;16.210;2023-05-01T13:48:50;3.10;;;2.80;;
45684;SDS011;46836;48.388;16.210;2023-05-01T13:51:21;3.50;;;3.00;;
45684;SDS011;46836;48.388;16.210;2023-05-01T13:53:50;4.13;;;3.03;;
45684;SDS011;46836;48.388;16.210;2023-05-01T13:56:19;2.50;;;2.30;;
45684;SDS011;46836;48.388;16.210;2023-05-01T13:58:47;3.87;;;2.70;;
45684;SDS011;46836;48.388;16.210;2023-05-01T14:01:17;2.63;;;2.43;;
45684;SDS011;46836;48.388;16.210;2023-05-01T14:03:46;3.03;;;2.77;;
45684;SDS011;46836;48.388;16.210;2023-05-01T14:06:15;2.57;;;2.37;;
45684;SDS011;46836;48.388;16.210;2023-05-01T14:08:44;3.70;;;2.50;;
45684;SDS011;46836;48.388;16.210;2023-05-01T14:11:13;2.80;;;2.60;;
45684;SDS011;46836;48.388;16.210;2023-05-01T14:13:42;2.40;;;2.20;;
45684;SDS011;46836;48.388;16.210;2023-05-01T14:16:12;2.60;;;2.40;;
45684;SDS011;46836;48.388;16.210;2023-05-01T14:18:47;2.33;;;2.13;;
45684;SDS011;46836;48.388;16.210;2023-05-01T14:21:15;3.10;;;2.53;;
45684;SDS011;46836;48.388;16.210;2023-05-01T14:23:44;5.50;;;2.97;;
45684;SDS011;46836;48.388;16.210;2023-05-01T14:26:15;4.30;;;2.67;;
45684;SDS011;46836;48.388;16.210;2023-05-01T14:28:44;2.70;;;2.50;;
45684;SDS011;46836;48.388;16.210;2023-05-01T14:33:59;5.43;;;2.50;;
45684;SDS011;46836;48.388;16.210;2023-05-01T14:36:29;3.40;;;2.80;;
45684;SDS011;46836;48.388;16.210;2023-05-01T14:38:57;2.93;;;2.30;;
45684;SDS011;46836;48.388;16.210;2023-05-01T14:41:26;2.43;;;2.23;;
45684;SDS011;46836;48.388;16.210;2023-05-01T14:43:53;2.10;;;1.90;;
45684;SDS011;46836;48.388;16.210;2023-05-01T14:46:30;3.00;;;2.30;;
45684;SDS011;46836;48.388;16.210;2023-05-01T14:48:59;2.80;;;2.50;;
45684;SDS011;46836;48.388;16.210;2023-05-01T14:51:27;2.50;;;2.30;;
45684;SDS011;46836;48.388;16.210;2023-05-01T14:53:57;2.83;;;2.60;;
45684;SDS011;46836;48.388;16.210;2023-05-01T14:56:25;2.87;;;2.67;;
45684;SDS011;46836;48.388;16.210;2023-05-01T14:58:52;3.10;;;2.67;;
45684;SDS011;46836;48.388;16.210;2023-05-01T15:01:19;4.70;;;2.93;;
45684;SDS011;46836;48.388;16.210;2023-05-01T15:03:47;2.67;;;2.43;;
45684;SDS011;46836;48.388;16.210;2023-05-01T15:06:14;2.70;;;2.50;;
45684;SDS011;46836;48.388;16.210;2023-05-01T15:08:42;2.70;;;2.10;;
45684;SDS011;46836;48.388;16.210;2023-05-01T15:11:11;2.73;;;2.53;;
45684;SDS011;46836;48.388;16.210;2023-05-01T15:13:39;3.00;;;2.50;;
45684;SDS011;46836;48.388;16.210;2023-05-01T15:16:08;3.10;;;2.20;;
45684;SDS011;46836;48.388;16.210;2023-05-01T15:18:36;2.87;;;2.30;;
45684;SDS011;46836;48.388;16.210;2023-05-01T15:21:04;2.30;;;2.10;;